sensor_id;sensor_type;location;lat;lon;timestamp;pressure;altitude;pressure_sealevel;temperature;humidity
5413;BME280;2729;50.056;8.678;2022-10-22T00:00:16;99881.88;;;16.83;100.00
5413;BME280;2729;50.056;8.678;2022-10-22T00:02:43;99890.38;;;16.88;100.00
5413;BME280;2729;50.056;8.678;2022-10-22T00:05:09;99896.50;;;16.89;100.00
5413;BME280;2729;50.056;8.678;2022-10-22T00:07:35;99884.63;;;16.82;100.00
5413;BME280;2729;50.056;8.678;2022-10-22T00:10:03;99876.31;;;17.03;100.00
5413;BME280;2729;50.056;8.678;2022-10-22T00:12:29;99866.66;;;16.88;100.00
5413;BME280;2729;50.056;8.678;2022-10-22T00:14:55;99865.78;;;17.03;100.00
5413;BME280;2729;50.056;8.678;2022-10-22T00:17:21;99860.31;;;17.07;100.00
5413;BME280;2729;50.056;8.678;2022-10-22T00:19:47;99850.56;;;16.93;100.00
5413;BME280;2729;50.056;8.678;2022-10-22T00:22:14;99862.56;;;16.98;100.00
5413;BME280;2729;50.056;8.678;2022-10-22T00:24:40;99862.66;;;16.97;100.00
5413;BME280;2729;50.056;8.678;2022-10-22T00:27:08;99862.56;;;16.98;100.00
5413;BME280;2729;50.056;8.678;2022-10-22T00:29:34;99866.13;;;16.97;100.00
5413;BME280;2729;50.056;8.678;2022-10-22T00:32:01;99861.38;;;16.88;100.00
5413;BME280;2729;50.056;8.678;2022-10-22T00:34:27;99863.31;;;17.00;100.00
5413;BME280;2729;50.056;8.678;2022-10-22T00:36:54;99866.53;;;17.06;100.00
5413;BME280;2729;50.056;8.678;2022-10-22T00:39:22;99860.00;;;16.97;100.00
5413;BME280;2729;50.056;8.678;2022-10-22T00:41:50;99852.81;;;17.15;100.00
5413;BME280;2729;50.056;8.678;2022-10-22T00:47:22;99849.16;;;17.17;100.00
5413;BME280;2729;50.056;8.678;2022-10-22T00:49:48;99850.44;;;17.10;100.00
5413;BME280;2729;50.056;8.678;2022-10-22T00:52:15;99852.38;;;16.92;100.00
5413;BME280;2729;50.056;8.678;2022-10-22T00:54:41;99852.06;;;17.13;100.00
5413;BME280;2729;50.056;8.678;2022-10-22T00:57:08;99854.88;;;17.10;100.00
5413;BME280;2729;50.056;8.678;2022-10-22T00:59:35;99850.75;;;17.20;100.00
5413;BME280;2729;50.056;8.678;2022-10-22T01:02:02;99852.19;;;17.25;100.00
5413;BME280;2729;50.056;8.678;2022-10-22T01:04:28;99854.59;;;17.14;100.00
5413;BME280;2729;50.056;8.678;2022-10-22T01:06:54;99853.88;;;17.26;100.00
5413;BME280;2729;50.056;8.678;2022-10-22T01:09:27;99853.31;;;17.21;100.00
5413;BME280;2729;50.056;8.678;2022-10-22T01:12:11;99856.69;;;17.23;100.00
5413;BME280;2729;50.056;8.678;2022-10-22T01:22:44;99864.81;;;17.34;100.00
5413;BME280;2729;50.056;8.678;2022-10-22T01:28:18;99853.97;;;17.25;100.00
5413;BME280;2729;50.056;8.678;2022-10-22T01:30:48;99858.56;;;17.21;100.00
5413;BME280;2729;50.056;8.678;2022-10-22T01:33:18;99853.53;;;17.02;100.00
5413;BME280;2729;50.056;8.678;2022-10-22T01:35:45;99862.34;;;17.17;100.00
5413;BME280;2729;50.056;8.678;2022-10-22T01:38:15;99863.53;;;17.12;100.00
5413;BME280;2729;50.056;8.678;2022-10-22T01:40:42;99861.47;;;17.17;100.00
5413;BME280;2729;50.056;8.678;2022-10-22T01:43:09;99872.84;;;17.03;100.00
5413;BME280;2729;50.056;8.678;2022-10-22T01:45:48;99871.66;;;16.93;100.00
5413;BME280;2729;50.056;8.678;2022-10-22T01:48:38;99872.38;;;16.81;100.00
5413;BME280;2729;50.056;8.678;2022-10-22T01:51:17;99867.91;;;16.97;100.00
5413;BME280;2729;50.056;8.678;2022-10-22T01:54:02;99872.19;;;16.84;100.00
5413;BME280;2729;50.056;8.678;2022-10-22T01:57:04;99881.38;;;16.61;100.00
5413;BME280;2729;50.056;8.678;2022-10-22T01:59:57;99897.25;;;16.59;100.00
5413;BME280;2729;50.056;8.678;2022-10-22T02:02:46;99892.03;;;16.75;100.00
5413;BME280;2729;50.056;8.678;2022-10-22T02:05:28;99895.25;;;16.80;100.00
5413;BME280;2729;50.056;8.678;2022-10-22T02:08:00;99894.31;;;16.81;100.00
5413;BME280;2729;50.056;8.678;2022-10-22T02:10:28;99896.78;;;16.68;100.00
5413;BME280;2729;50.056;8.678;2022-10-22T02:12:55;99895.75;;;16.71;100.00
5413;BME280;2729;50.056;8.678;2022-10-22T02:15:23;99892.09;;;16.89;100.00
5413;BME280;2729;50.056;8.678;2022-10-22T02:17:52;99889.88;;;16.97;100.00
5413;BME280;2729;50.056;8.678;2022-10-22T02:20:28;99892.44;;;16.83;100.00
5413;BME280;2729;50.056;8.678;2022-10-22T02:22:56;99888.19;;;16.65;100.00
5413;BME280;2729;50.056;8.678;2022-10-22T02:25:25;99897.09;;;16.62;100.00
5413;BME280;2729;50.056;8.678;2022-10-22T02:28:20;99905.78;;;16.80;100.00
5413;BME280;2729;50.056;8.678;2022-10-22T02:30:52;99904.59;;;16.86;100.00
5413;BME280;2729;50.056;8.678;2022-10-22T02:33:31;99901.97;;;16.86;100.00
5413;BME280;2729;50.056;8.678;2022-10-22T02:36:00;99901.19;;;16.84;100.00
5413;BME280;2729;50.056;8.678;2022-10-22T02:38:28;99902.47;;;16.77;100.00
5413;BME280;2729;50.056;8.678;2022-10-22T02:40:55;99909.88;;;16.86;100.00
5413;BME280;2729;50.056;8.678;2022-10-22T02:43:23;99910.03;;;16.67;100.00
5413;BME280;2729;50.056;8.678;2022-10-22T02:45:50;99907.50;;;16.81;100.00
5413;BME280;2729;50.056;8.678;2022-10-22T02:48:16;99909.69;;;16.73;100.00
5413;BME280;2729;50.056;8.678;2022-10-22T02:50:42;99905.38;;;16.72;100.00
5413;BME280;2729;50.056;8.678;2022-10-22T02:53:08;99893.91;;;16.73;100.00
5413;BME280;2729;50.056;8.678;2022-10-22T02:55:34;99894.13;;;16.84;100.00
5413;BME280;2729;50.056;8.678;2022-10-22T02:57:59;99890.47;;;16.87;100.00
5413;BME280;2729;50.056;8.678;2022-10-22T03:00:26;99885.78;;;16.92;100.00
5413;BME280;2729;50.056;8.678;2022-10-22T03:02:52;99893.53;;;16.79;100.00
5413;BME280;2729;50.056;8.678;2022-10-22T03:05:18;99887.41;;;16.94;100.00
5413;BME280;2729;50.056;8.678;2022-10-22T03:07:44;99898.81;;;16.79;100.00
5413;BME280;2729;50.056;8.678;2022-10-22T03:10:10;99900.59;;;16.94;100.00
5413;BME280;2729;50.056;8.678;2022-10-22T03:12:37;99900.16;;;16.86;100.00
5413;BME280;2729;50.056;8.678;2022-10-22T03:15:04;99906.97;;;16.59;100.00
5413;BME280;2729;50.056;8.678;2022-10-22T03:17:30;99905.44;;;16.55;100.00
5413;BME280;2729;50.056;8.678;2022-10-22T03:19:56;99910.78;;;16.53;100.00
5413;BME280;2729;50.056;8.678;2022-10-22T03:22:24;99906.47;;;16.68;100.00
5413;BME280;2729;50.056;8.678;2022-10-22T03:24:53;99903.50;;;16.74;100.00
5413;BME280;2729;50.056;8.678;2022-10-22T03:27:21;99903.94;;;16.66;100.00
5413;BME280;2729;50.056;8.678;2022-10-22T03:29:49;99911.41;;;16.74;100.00
5413;BME280;2729;50.056;8.678;2022-10-22T03:32:16;99917.59;;;16.73;100.00
5413;BME280;2729;50.056;8.678;2022-10-22T03:34:42;99925.94;;;16.81;100.00
5413;BME280;2729;50.056;8.678;2022-10-22T03:37:08;99932.22;;;16.79;100.00
5413;BME280;2729;50.056;8.678;2022-10-22T03:39:34;99938.44;;;16.78;100.00
5413;BME280;2729;50.056;8.678;2022-10-22T03:42:02;99942.44;;;16.85;100.00
5413;BME280;2729;50.056;8.678;2022-10-22T03:44:29;99947.63;;;16.86;100.00
5413;BME280;2729;50.056;8.678;2022-10-22T03:46:55;99947.44;;;16.89;100.00
5413;BME280;2729;50.056;8.678;2022-10-22T03:49:21;99952.03;;;16.70;100.00
5413;BME280;2729;50.056;8.678;2022-10-22T03:51:47;99959.53;;;16.78;100.00
5413;BME280;2729;50.056;8.678;2022-10-22T03:54:14;99956.28;;;16.73;100.00
5413;BME280;2729;50.056;8.678;2022-10-22T03:56:40;99961.06;;;16.82;100.00
5413;BME280;2729;50.056;8.678;2022-10-22T03:59:06;99958.41;;;16.82;100.00
5413;BME280;2729;50.056;8.678;2022-10-22T04:01:33;99966.50;;;16.79;100.00
5413;BME280;2729;50.056;8.678;2022-10-22T04:03:58;99964.63;;;16.81;100.00
5413;BME280;2729;50.056;8.678;2022-10-22T04:06:25;99979.75;;;16.77;100.00
5413;BME280;2729;50.056;8.678;2022-10-22T04:08:51;99980.00;;;16.73;100.00
5413;BME280;2729;50.056;8.678;2022-10-22T04:11:17;99982.41;;;16.77;100.00
5413;BME280;2729;50.056;8.678;2022-10-22T04:13:44;99986.47;;;16.67;100.00
5413;BME280;2729;50.056;8.678;2022-10-22T04:16:18;99991.06;;;16.79;100.00
5413;BME280;2729;50.056;8.678;2022-10-22T04:18:46;99996.84;;;16.86;100.00
5413;BME280;2729;50.056;8.678;2022-10-22T04:21:15;99999.56;;;16.84;100.00
5413;BME280;2729;50.056;8.678;2022-10-22T04:23:46;100002.28;;;16.83;100.00
5413;BME280;2729;50.056;8.678;2022-10-22T04:26:13;99999.66;;;16.83;100.00
5413;BME280;2729;50.056;8.678;2022-10-22T04:28:40;100008.16;;;16.72;100.00
5413;BME280;2729;50.056;8.678;2022-10-22T04:31:12;100013.25;;;16.75;100.00
5413;BME280;2729;50.056;8.678;2022-10-22T04:33:39;100013.84;;;16.80;100.00
5413;BME280;2729;50.056;8.678;2022-10-22T04:36:10;100013.84;;;16.80;100.00
5413;BME280;2729;50.056;8.678;2022-10-22T04:38:39;100016.44;;;16.64;100.00
5413;BME280;2729;50.056;8.678;2022-10-22T04:41:14;100010.19;;;16.67;100.00
5413;BME280;2729;50.056;8.678;2022-10-22T04:43:40;100018.53;;;16.75;100.00
5413;BME280;2729;50.056;8.678;2022-10-22T04:46:07;100021.34;;;16.72;100.00
5413;BME280;2729;50.056;8.678;2022-10-22T04:48:38;100013.22;;;16.59;100.00
5413;BME280;2729;50.056;8.678;2022-10-22T04:51:05;100006.19;;;16.76;100.00
5413;BME280;2729;50.056;8.678;2022-10-22T04:53:32;100013.88;;;16.63;100.00
5413;BME280;2729;50.056;8.678;2022-10-22T04:56:11;100019.16;;;16.63;100.00
5413;BME280;2729;50.056;8.678;2022-10-22T04:58:38;100019.03;;;16.66;100.00
5413;BME280;2729;50.056;8.678;2022-10-22T05:01:12;100016.06;;;16.72;100.00
5413;BME280;2729;50.056;8.678;2022-10-22T05:03:39;100011.97;;;16.66;100.00
5413;BME280;2729;50.056;8.678;2022-10-22T05:06:06;100009.88;;;16.56;100.00
5413;BME280;2729;50.056;8.678;2022-10-22T05:08:32;100011.47;;;16.43;100.00
5413;BME280;2729;50.056;8.678;2022-10-22T05:10:58;100013.13;;;16.28;100.00
5413;BME280;2729;50.056;8.678;2022-10-22T05:13:24;100019.56;;;16.55;100.00
5413;BME280;2729;50.056;8.678;2022-10-22T05:15:50;100012.28;;;16.27;100.00
5413;BME280;2729;50.056;8.678;2022-10-22T05:18:16;100023.09;;;16.38;100.00
5413;BME280;2729;50.056;8.678;2022-10-22T05:20:42;100017.03;;;16.54;100.00
5413;BME280;2729;50.056;8.678;2022-10-22T05:23:08;100024.44;;;16.63;100.00
5413;BME280;2729;50.056;8.678;2022-10-22T05:25:37;100035.09;;;16.44;100.00
5413;BME280;2729;50.056;8.678;2022-10-22T05:28:03;100032.88;;;16.36;100.00
5413;BME280;2729;50.056;8.678;2022-10-22T05:30:29;100037.81;;;16.43;100.00
5413;BME280;2729;50.056;8.678;2022-10-22T05:32:55;100037.22;;;16.37;100.00
5413;BME280;2729;50.056;8.678;2022-10-22T05:35:21;100041.84;;;16.50;100.00
5413;BME280;2729;50.056;8.678;2022-10-22T05:37:47;100038.41;;;16.65;100.00
5413;BME280;2729;50.056;8.678;2022-10-22T05:40:13;100039.25;;;16.65;100.00
5413;BME280;2729;50.056;8.678;2022-10-22T05:42:39;100039.31;;;16.64;100.00
5413;BME280;2729;50.056;8.678;2022-10-22T05:45:05;100037.81;;;16.43;100.00
5413;BME280;2729;50.056;8.678;2022-10-22T05:47:32;100049.44;;;16.38;100.00
5413;BME280;2729;50.056;8.678;2022-10-22T05:49:58;100052.81;;;16.58;100.00
5413;BME280;2729;50.056;8.678;2022-10-22T05:52:24;100047.22;;;16.64;100.00
5413;BME280;2729;50.056;8.678;2022-10-22T05:54:51;100054.69;;;16.56;100.00
5413;BME280;2729;50.056;8.678;2022-10-22T05:57:17;100063.59;;;16.53;100.00
5413;BME280;2729;50.056;8.678;2022-10-22T05:59:43;100065.78;;;16.45;100.00
5413;BME280;2729;50.056;8.678;2022-10-22T06:02:09;100069.97;;;16.49;100.00
5413;BME280;2729;50.056;8.678;2022-10-22T06:04:35;100067.44;;;16.63;100.00
5413;BME280;2729;50.056;8.678;2022-10-22T06:07:01;100076.53;;;16.58;100.00
5413;BME280;2729;50.056;8.678;2022-10-22T06:09:30;100082.19;;;16.67;100.00
5413;BME280;2729;50.056;8.678;2022-10-22T06:11:56;100079.66;;;16.66;100.00
5413;BME280;2729;50.056;8.678;2022-10-22T06:14:23;100072.03;;;16.60;100.00
5413;BME280;2729;50.056;8.678;2022-10-22T06:16:50;100078.16;;;16.60;100.00
5413;BME280;2729;50.056;8.678;2022-10-22T06:19:18;100080.41;;;16.51;100.00
5413;BME280;2729;50.056;8.678;2022-10-22T06:21:45;100073.19;;;16.54;100.00
5413;BME280;2729;50.056;8.678;2022-10-22T06:24:12;100083.56;;;16.24;100.00
5413;BME280;2729;50.056;8.678;2022-10-22T06:26:38;100074.84;;;16.39;100.00
5413;BME280;2729;50.056;8.678;2022-10-22T06:29:04;100081.69;;;16.09;100.00
5413;BME280;2729;50.056;8.678;2022-10-22T06:31:30;100080.22;;;16.21;100.00
5413;BME280;2729;50.056;8.678;2022-10-22T06:34:03;100089.81;;;16.22;100.00
5413;BME280;2729;50.056;8.678;2022-10-22T06:36:29;100094.94;;;16.25;100.00
5413;BME280;2729;50.056;8.678;2022-10-22T06:38:56;100102.75;;;16.09;100.00
5413;BME280;2729;50.056;8.678;2022-10-22T06:41:22;100117.47;;;16.13;100.00
5413;BME280;2729;50.056;8.678;2022-10-22T06:43:48;100119.34;;;16.11;100.00
5413;BME280;2729;50.056;8.678;2022-10-22T06:46:17;100124.97;;;16.03;100.00
5413;BME280;2729;50.056;8.678;2022-10-22T06:48:50;100124.28;;;16.17;100.00
5413;BME280;2729;50.056;8.678;2022-10-22T06:51:17;100127.38;;;16.08;100.00
5413;BME280;2729;50.056;8.678;2022-10-22T06:53:44;100125.66;;;15.90;100.00
5413;BME280;2729;50.056;8.678;2022-10-22T06:56:12;100135.41;;;15.88;100.00
5413;BME280;2729;50.056;8.678;2022-10-22T06:58:39;100135.50;;;16.03;100.00
5413;BME280;2729;50.056;8.678;2022-10-22T07:01:08;100141.63;;;15.87;100.00
5413;BME280;2729;50.056;8.678;2022-10-22T07:03:35;100145.03;;;16.06;100.00
5413;BME280;2729;50.056;8.678;2022-10-22T07:06:03;100153.94;;;15.67;100.00
5413;BME280;2729;50.056;8.678;2022-10-22T07:08:29;100153.31;;;15.98;100.00
5413;BME280;2729;50.056;8.678;2022-10-22T07:10:55;100158.34;;;16.03;100.00
5413;BME280;2729;50.056;8.678;2022-10-22T07:13:23;100163.59;;;15.86;100.00
5413;BME280;2729;50.056;8.678;2022-10-22T07:15:52;100167.47;;;15.96;100.00
5413;BME280;2729;50.056;8.678;2022-10-22T07:18:20;100170.13;;;16.13;100.00
5413;BME280;2729;50.056;8.678;2022-10-22T07:20:47;100167.97;;;16.21;100.00
5413;BME280;2729;50.056;8.678;2022-10-22T07:23:13;100167.19;;;16.19;100.00
5413;BME280;2729;50.056;8.678;2022-10-22T07:25:39;100183.56;;;16.26;100.00
5413;BME280;2729;50.056;8.678;2022-10-22T07:28:06;100180.19;;;16.05;100.00
5413;BME280;2729;50.056;8.678;2022-10-22T07:30:33;100187.97;;;16.43;100.00
5413;BME280;2729;50.056;8.678;2022-10-22T07:32:59;100183.09;;;16.52;100.00
5413;BME280;2729;50.056;8.678;2022-10-22T07:35:25;100186.13;;;16.45;100.00
5413;BME280;2729;50.056;8.678;2022-10-22T07:37:51;100196.38;;;16.68;100.00
5413;BME280;2729;50.056;8.678;2022-10-22T07:40:17;100200.78;;;16.67;100.00
5413;BME280;2729;50.056;8.678;2022-10-22T07:42:43;100202.38;;;16.53;100.00
5413;BME280;2729;50.056;8.678;2022-10-22T07:45:09;100208.69;;;16.85;100.00
5413;BME280;2729;50.056;8.678;2022-10-22T07:47:35;100208.91;;;16.63;100.00
5413;BME280;2729;50.056;8.678;2022-10-22T07:50:01;100207.97;;;16.64;100.00
5413;BME280;2729;50.056;8.678;2022-10-22T07:52:27;100204.34;;;16.84;100.00
5413;BME280;2729;50.056;8.678;2022-10-22T07:54:53;100204.06;;;17.06;100.00
5413;BME280;2729;50.056;8.678;2022-10-22T07:57:19;100216.44;;;16.70;100.00
5413;BME280;2729;50.056;8.678;2022-10-22T07:59:45;100213.63;;;16.91;100.00
5413;BME280;2729;50.056;8.678;2022-10-22T08:02:11;100226.13;;;16.87;100.00
5413;BME280;2729;50.056;8.678;2022-10-22T08:04:37;100213.00;;;17.03;100.00
5413;BME280;2729;50.056;8.678;2022-10-22T08:07:03;100218.63;;;17.13;100.00
5413;BME280;2729;50.056;8.678;2022-10-22T08:09:30;100227.13;;;17.02;100.00
5413;BME280;2729;50.056;8.678;2022-10-22T08:11:56;100229.47;;;17.24;100.00
5413;BME280;2729;50.056;8.678;2022-10-22T08:14:22;100232.63;;;16.97;100.00
5413;BME280;2729;50.056;8.678;2022-10-22T08:16:48;100226.50;;;16.97;100.00
5413;BME280;2729;50.056;8.678;2022-10-22T08:19:14;100227.72;;;17.40;100.00
5413;BME280;2729;50.056;8.678;2022-10-22T08:21:44;100222.56;;;17.54;100.00
5413;BME280;2729;50.056;8.678;2022-10-22T08:24:11;100222.13;;;17.46;100.00
5413;BME280;2729;50.056;8.678;2022-10-22T08:26:37;100223.91;;;17.61;100.00
5413;BME280;2729;50.056;8.678;2022-10-22T08:29:03;100221.19;;;17.47;100.00
5413;BME280;2729;50.056;8.678;2022-10-22T08:31:29;100225.25;;;17.37;100.00
5413;BME280;2729;50.056;8.678;2022-10-22T08:33:54;100235.34;;;17.29;100.00
5413;BME280;2729;50.056;8.678;2022-10-22T08:36:20;100238.13;;;17.59;100.00
5413;BME280;2729;50.056;8.678;2022-10-22T08:38:46;100237.63;;;17.52;100.00
5413;BME280;2729;50.056;8.678;2022-10-22T08:41:15;100249.25;;;17.32;100.00
5413;BME280;2729;50.056;8.678;2022-10-22T08:44:04;100248.09;;;17.54;100.00
5413;BME280;2729;50.056;8.678;2022-10-22T08:49:17;100248.22;;;17.84;100.00
5413;BME280;2729;50.056;8.678;2022-10-22T08:51:44;100251.72;;;18.00;100.00
5413;BME280;2729;50.056;8.678;2022-10-22T08:54:24;100255.13;;;17.86;100.00
5413;BME280;2729;50.056;8.678;2022-10-22T08:57:44;100257.59;;;17.74;100.00
5413;BME280;2729;50.056;8.678;2022-10-22T08:59:55;100263.22;;;17.83;100.00
5413;BME280;2729;50.056;8.678;2022-10-22T09:02:31;100266.28;;;17.76;100.00
5413;BME280;2729;50.056;8.678;2022-10-22T09:05:32;100264.06;;;17.84;100.00
5413;BME280;2729;50.056;8.678;2022-10-22T09:07:59;100263.03;;;17.71;100.00
5413;BME280;2729;50.056;8.678;2022-10-22T09:10:32;100251.13;;;17.79;100.00
5413;BME280;2729;50.056;8.678;2022-10-22T09:13:00;100254.91;;;18.22;100.00
5413;BME280;2729;50.056;8.678;2022-10-22T09:15:26;100250.38;;;18.24;100.00
5413;BME280;2729;50.056;8.678;2022-10-22T09:18:32;100255.22;;;18.32;100.00
5413;BME280;2729;50.056;8.678;2022-10-22T09:21:13;100259.13;;;18.41;100.00
5413;BME280;2729;50.056;8.678;2022-10-22T09:24:11;100272.09;;;18.29;100.00
5413;BME280;2729;50.056;8.678;2022-10-22T09:26:39;100267.31;;;18.05;100.00
5413;BME280;2729;50.056;8.678;2022-10-22T09:29:13;100263.38;;;18.43;100.00
5413;BME280;2729;50.056;8.678;2022-10-22T09:31:43;100270.56;;;18.25;100.00
5413;BME280;2729;50.056;8.678;2022-10-22T09:34:13;100262.28;;;18.47;100.00
5413;BME280;2729;50.056;8.678;2022-10-22T09:36:39;100256.38;;;18.58;100.00
5413;BME280;2729;50.056;8.678;2022-10-22T09:39:21;100269.03;;;18.37;100.00
5413;BME280;2729;50.056;8.678;2022-10-22T09:41:48;100270.88;;;18.19;100.00
5413;BME280;2729;50.056;8.678;2022-10-22T09:44:14;100261.28;;;18.34;100.00
5413;BME280;2729;50.056;8.678;2022-10-22T09:46:39;100260.13;;;18.54;100.00
5413;BME280;2729;50.056;8.678;2022-10-22T09:49:20;100269.84;;;18.69;100.00
5413;BME280;2729;50.056;8.678;2022-10-22T09:51:56;100274.09;;;18.72;100.00
5413;BME280;2729;50.056;8.678;2022-10-22T09:57:17;100280.47;;;18.83;100.00
5413;BME280;2729;50.056;8.678;2022-10-22T09:59:49;100281.34;;;18.98;100.00
5413;BME280;2729;50.056;8.678;2022-10-22T10:02:19;100281.72;;;18.92;100.00
5413;BME280;2729;50.056;8.678;2022-10-22T10:04:49;100278.03;;;18.94;100.00
5413;BME280;2729;50.056;8.678;2022-10-22T10:07:29;100274.41;;;18.81;100.00
5413;BME280;2729;50.056;8.678;2022-10-22T10:09:56;100275.72;;;18.74;100.00
5413;BME280;2729;50.056;8.678;2022-10-22T10:12:56;100278.06;;;19.23;100.00
5413;BME280;2729;50.056;8.678;2022-10-22T10:15:37;100277.69;;;19.15;100.00
5413;BME280;2729;50.056;8.678;2022-10-22T10:18:20;100275.00;;;19.01;100.00
5413;BME280;2729;50.056;8.678;2022-10-22T10:21:07;100283.81;;;19.01;100.00
5413;BME280;2729;50.056;8.678;2022-10-22T10:23:46;100284.59;;;19.17;100.00
5413;BME280;2729;50.056;8.678;2022-10-22T10:26:33;100293.22;;;19.35;100.00
5413;BME280;2729;50.056;8.678;2022-10-22T10:34:15;100296.97;;;19.17;100.00
5413;BME280;2729;50.056;8.678;2022-10-22T10:42:00;100273.34;;;19.14;100.00
5413;BME280;2729;50.056;8.678;2022-10-22T10:44:53;100280.63;;;19.39;100.00
5413;BME280;2729;50.056;8.678;2022-10-22T10:47:55;100279.94;;;19.07;100.00
5413;BME280;2729;50.056;8.678;2022-10-22T10:50:30;100288.38;;;19.42;100.00
5413;BME280;2729;50.056;8.678;2022-10-22T10:53:11;100283.38;;;19.37;100.00
5413;BME280;2729;50.056;8.678;2022-10-22T10:58:24;100295.78;;;19.79;100.00
5413;BME280;2729;50.056;8.678;2022-10-22T11:00:57;100280.75;;;20.21;100.00
5413;BME280;2729;50.056;8.678;2022-10-22T11:03:36;100289.34;;;20.78;100.00
5413;BME280;2729;50.056;8.678;2022-10-22T11:06:11;100278.25;;;20.32;100.00
5413;BME280;2729;50.056;8.678;2022-10-22T11:11:37;100278.25;;;20.46;100.00
5413;BME280;2729;50.056;8.678;2022-10-22T11:14:12;100274.53;;;20.49;100.00
5413;BME280;2729;50.056;8.678;2022-10-22T11:17:10;100269.44;;;20.46;100.00
5413;BME280;2729;50.056;8.678;2022-10-22T11:19:45;100285.97;;;20.76;100.00
5413;BME280;2729;50.056;8.678;2022-10-22T11:22:25;100277.66;;;21.08;100.00
5413;BME280;2729;50.056;8.678;2022-10-22T11:27:41;100274.03;;;20.96;100.00
5413;BME280;2729;50.056;8.678;2022-10-22T11:30:15;100259.84;;;21.48;100.00
5413;BME280;2729;50.056;8.678;2022-10-22T11:32:44;100259.63;;;21.38;100.00
5413;BME280;2729;50.056;8.678;2022-10-22T11:35:14;100257.84;;;21.39;100.00
5413;BME280;2729;50.056;8.678;2022-10-22T11:37:43;100268.72;;;20.96;100.00
5413;BME280;2729;50.056;8.678;2022-10-22T11:40:17;100261.78;;;21.33;100.00
5413;BME280;2729;50.056;8.678;2022-10-22T11:42:48;100270.75;;;21.05;100.00
5413;BME280;2729;50.056;8.678;2022-10-22T11:47:52;100265.91;;;21.25;100.00
5413;BME280;2729;50.056;8.678;2022-10-22T11:58:32;100273.09;;;21.10;100.00
5413;BME280;2729;50.056;8.678;2022-10-22T12:16:24;100253.88;;;21.19;100.00
5413;BME280;2729;50.056;8.678;2022-10-22T12:18:56;100250.28;;;21.33;100.00
5413;BME280;2729;50.056;8.678;2022-10-22T12:21:25;100250.25;;;21.07;100.00
5413;BME280;2729;50.056;8.678;2022-10-22T12:23:51;100246.34;;;21.00;100.00
5413;BME280;2729;50.056;8.678;2022-10-22T12:26:26;100251.75;;;20.99;100.00
5413;BME280;2729;50.056;8.678;2022-10-22T12:29:00;100244.94;;;20.95;100.00
5413;BME280;2729;50.056;8.678;2022-10-22T12:31:27;100237.84;;;20.95;100.00
5413;BME280;2729;50.056;8.678;2022-10-22T12:33:59;100242.28;;;20.95;100.00
5413;BME280;2729;50.056;8.678;2022-10-22T12:36:27;100241.78;;;21.02;100.00
5413;BME280;2729;50.056;8.678;2022-10-22T12:38:53;100243.56;;;20.89;100.00
5413;BME280;2729;50.056;8.678;2022-10-22T12:41:30;100238.09;;;20.65;100.00
5413;BME280;2729;50.056;8.678;2022-10-22T12:44:03;100250.81;;;20.60;100.00
5413;BME280;2729;50.056;8.678;2022-10-22T12:46:32;100247.16;;;20.88;100.00
5413;BME280;2729;50.056;8.678;2022-10-22T12:49:00;100234.13;;;21.10;100.00
5413;BME280;2729;50.056;8.678;2022-10-22T12:51:27;100223.09;;;21.42;100.00
5413;BME280;2729;50.056;8.678;2022-10-22T12:54:02;100227.81;;;21.75;100.00
5413;BME280;2729;50.056;8.678;2022-10-22T12:56:31;100229.81;;;21.84;100.00
5413;BME280;2729;50.056;8.678;2022-10-22T12:59:28;100239.88;;;21.42;100.00
5413;BME280;2729;50.056;8.678;2022-10-22T13:01:55;100242.44;;;21.31;100.00
5413;BME280;2729;50.056;8.678;2022-10-22T13:04:33;100244.56;;;21.39;100.00
5413;BME280;2729;50.056;8.678;2022-10-22T13:07:16;100243.03;;;21.60;100.00
5413;BME280;2729;50.056;8.678;2022-10-22T13:10:01;100237.16;;;21.80;100.00
5413;BME280;2729;50.056;8.678;2022-10-22T13:12:35;100243.88;;;21.73;100.00
5413;BME280;2729;50.056;8.678;2022-10-22T13:18:21;100242.09;;;21.98;100.00
5413;BME280;2729;50.056;8.678;2022-10-22T13:20:56;100236.84;;;21.72;100.00
5413;BME280;2729;50.056;8.678;2022-10-22T13:23:25;100240.94;;;21.53;100.00
5413;BME280;2729;50.056;8.678;2022-10-22T13:26:13;100247.22;;;21.26;100.00
5413;BME280;2729;50.056;8.678;2022-10-22T13:28:40;100244.22;;;20.93;100.00
5413;BME280;2729;50.056;8.678;2022-10-22T13:31:24;100243.69;;;21.00;100.00
5413;BME280;2729;50.056;8.678;2022-10-22T13:33:54;100243.88;;;20.97;100.00
5413;BME280;2729;50.056;8.678;2022-10-22T13:36:21;100231.28;;;21.26;100.00
5413;BME280;2729;50.056;8.678;2022-10-22T13:38:48;100236.03;;;21.21;100.00
5413;BME280;2729;50.056;8.678;2022-10-22T13:41:26;100230.31;;;21.14;100.00
5413;BME280;2729;50.056;8.678;2022-10-22T13:43:53;100234.34;;;21.45;100.00
5413;BME280;2729;50.056;8.678;2022-10-22T13:46:20;100226.94;;;21.25;100.00
5413;BME280;2729;50.056;8.678;2022-10-22T13:48:47;100233.84;;;21.28;100.00
5413;BME280;2729;50.056;8.678;2022-10-22T13:51:19;100234.97;;;21.49;100.00
5413;BME280;2729;50.056;8.678;2022-10-22T13:53:46;100236.97;;;21.71;100.00
5413;BME280;2729;50.056;8.678;2022-10-22T13:56:14;100230.75;;;21.34;100.00
5413;BME280;2729;50.056;8.678;2022-10-22T13:58:42;100240.06;;;21.14;100.00
5413;BME280;2729;50.056;8.678;2022-10-22T14:01:17;100236.91;;;21.34;100.00
5413;BME280;2729;50.056;8.678;2022-10-22T14:03:44;100238.38;;;21.00;100.00
5413;BME280;2729;50.056;8.678;2022-10-22T14:06:16;100233.59;;;21.18;100.00
5413;BME280;2729;50.056;8.678;2022-10-22T14:08:44;100239.22;;;21.01;100.00
5413;BME280;2729;50.056;8.678;2022-10-22T14:11:11;100242.47;;;20.79;100.00
5413;BME280;2729;50.056;8.678;2022-10-22T14:13:37;100232.53;;;21.21;100.00
5413;BME280;2729;50.056;8.678;2022-10-22T14:16:06;100243.34;;;20.92;100.00
5413;BME280;2729;50.056;8.678;2022-10-22T14:18:33;100238.78;;;20.94;100.00
5413;BME280;2729;50.056;8.678;2022-10-22T14:21:02;100244.44;;;21.15;100.00
5413;BME280;2729;50.056;8.678;2022-10-22T14:23:34;100241.56;;;21.18;100.00
5413;BME280;2729;50.056;8.678;2022-10-22T14:26:02;100236.16;;;21.32;100.00